Time;durP1;ratioP1;P1;durP2;ratioP2;P2;SDS_P1;SDS_P2;PMS_P1;PMS_P2;Temp;Humidity;BMP_temperature;BMP_pressure;BME280_temperature;BME280_humidity;BME280_pressure;Samples;Min_cycle;Max_cycle;Signal;HPM_P1;HPM_P2
2023/09/14 00:00:17;;;;;;;;;;;22.80;1.00;;;;;;4955655;29;20024;-63
2023/09/14 00:02:44;;;;;;;;;;;22.80;1.00;;;;;;4955772;29;19926;-63
2023/09/14 00:05:11;;;;;;;;;;;22.80;1.00;;;;;;4955706;29;20378;-63
2023/09/14 00:07:38;;;;;;;;;;;22.80;1.00;;;;;;4955349;29;20374;-63
2023/09/14 00:10:05;;;;;;;;;;;22.80;1.00;;;;;;4955714;29;19926;-63
2023/09/14 00:12:32;;;;;;;;;;;22.80;1.00;;;;;;4955455;29;19926;-63
2023/09/14 00:15:05;;;;;;;;;;;22.80;1.00;;;;;;4955603;29;19927;-63
2023/09/14 00:17:32;;;;;;;;;;;22.80;1.00;;;;;;4955085;29;20009;-63
2023/09/14 00:19:59;;;;;;;;;;;22.80;1.00;;;;;;4955354;29;19933;-63
2023/09/14 00:22:26;;;;;;;;;;;22.80;1.00;;;;;;4955034;29;19933;-63
2023/09/14 00:24:53;;;;;;;;;;;22.80;1.00;;;;;;4955392;29;19989;-62
2023/09/14 00:27:20;;;;;;;;;;;22.80;1.00;;;;;;4954806;29;19926;-65
2023/09/14 00:29:46;;;;;;;;;;;22.80;1.00;;;;;;4955300;29;20463;-63
2023/09/14 00:32:13;;;;;;;;;;;22.70;1.00;;;;;;4937991;29;19950;-63
2023/09/14 00:34:40;;;;;;;;;;;22.70;1.00;;;;;;4955138;29;20018;-63
2023/09/14 00:37:06;;;;;;;;;;;22.70;1.00;;;;;;4934326;29;20135;-63
2023/09/14 00:39:33;;;;;;;;;;;22.70;1.00;;;;;;4935965;29;20386;-63
2023/09/14 00:42:00;;;;;;;;;;;22.70;1.00;;;;;;4935920;29;20003;-63
2023/09/14 00:44:27;;;;;;;;;;;22.70;1.00;;;;;;4935843;29;19931;-63
2023/09/14 00:46:53;;;;;;;;;;;22.70;1.00;;;;;;4935584;29;19927;-63
2023/09/14 00:49:20;;;;;;;;;;;22.70;1.00;;;;;;4934287;29;19978;-63
2023/09/14 00:51:48;;;;;;;;;;;22.70;1.00;;;;;;4929824;29;19934;-64
2023/09/14 00:54:14;;;;;;;;;;;22.70;1.00;;;;;;4937618;29;20409;-63
2023/09/14 00:56:42;;;;;;;;;;;22.70;1.00;;;;;;4937159;29;19927;-63
2023/09/14 00:59:09;;;;;;;;;;;22.60;1.00;;;;;;4937488;29;20385;-64
2023/09/14 01:01:36;;;;;;;;;;;22.70;1.00;;;;;;4954718;29;19927;-64
2023/09/14 01:04:05;;;;;;;;;;;22.60;1.00;;;;;;4937415;29;19982;-63
2023/09/14 01:06:32;;;;;;;;;;;22.60;1.00;;;;;;4937021;29;19926;-64
2023/09/14 01:09:00;;;;;;;;;;;22.60;1.00;;;;;;4934273;29;19977;-63
2023/09/14 01:11:27;;;;;;;;;;;22.60;1.00;;;;;;4934032;29;19933;-64
2023/09/14 01:14:08;;;;;;;;;;;22.60;1.00;;;;;;4934140;29;20013;-63
2023/09/14 01:16:53;;;;;;;;;;;22.60;1.00;;;;;;4933827;29;20306;-63
2023/09/14 01:19:36;;;;;;;;;;;22.60;1.00;;;;;;4934081;29;20383;-63
2023/09/14 01:22:22;;;;;;;;;;;22.60;1.00;;;;;;4935520;29;19973;-64
2023/09/14 01:25:02;;;;;;;;;;;22.60;1.00;;;;;;4933901;29;19949;-64
2023/09/14 01:27:29;;;;;;;;;;;22.60;1.00;;;;;;4933565;29;19972;-63
2023/09/14 01:29:56;;;;;;;;;;;22.60;1.00;;;;;;4933892;29;20406;-63
2023/09/14 01:32:25;;;;;;;;;;;22.60;1.00;;;;;;4935334;29;19956;-63
2023/09/14 01:34:52;;;;;;;;;;;22.60;1.00;;;;;;4946776;29;19933;-63
2023/09/14 01:37:19;;;;;;;;;;;22.50;1.00;;;;;;4954006;29;19977;-63
2023/09/14 01:39:48;;;;;;;;;;;22.50;1.00;;;;;;4937053;29;19926;-63
2023/09/14 01:42:15;;;;;;;;;;;22.50;1.00;;;;;;4937011;29;19926;-63
2023/09/14 01:44:43;;;;;;;;;;;22.50;1.00;;;;;;4936956;29;19981;-63
2023/09/14 01:47:10;;;;;;;;;;;22.50;1.00;;;;;;4936645;29;19938;-64
2023/09/14 01:49:37;;;;;;;;;;;22.50;1.00;;;;;;4936822;29;20314;-64
2023/09/14 01:52:04;;;;;;;;;;;22.50;1.00;;;;;;4936877;29;19977;-64
2023/09/14 01:54:31;;;;;;;;;;;22.50;1.00;;;;;;4954268;29;20337;-63
2023/09/14 01:56:58;;;;;;;;;;;22.50;1.00;;;;;;4936565;29;19926;-63
2023/09/14 01:59:24;;;;;;;;;;;22.50;1.00;;;;;;4936949;29;19930;-64
2023/09/14 02:01:51;;;;;;;;;;;22.50;1.00;;;;;;4936785;29;19927;-63
2023/09/14 02:04:18;;;;;;;;;;;22.40;1.00;;;;;;4936850;29;19926;-63
2023/09/14 02:06:45;;;;;;;;;;;22.40;1.00;;;;;;4936449;29;19930;-63
2023/09/14 02:09:11;;;;;;;;;;;22.40;1.00;;;;;;4936787;29;19962;-63
2023/09/14 02:11:38;;;;;;;;;;;22.40;1.00;;;;;;4953957;29;19934;-64
2023/09/14 02:14:05;;;;;;;;;;;22.40;1.00;;;;;;4937116;29;20290;-64
2023/09/14 02:16:32;;;;;;;;;;;22.40;1.00;;;;;;4936491;29;20009;-63
2023/09/14 02:18:58;;;;;;;;;;;22.40;1.00;;;;;;4957593;29;19963;-62
2023/09/14 02:21:25;;;;;;;;;;;22.40;1.00;;;;;;4957643;29;20390;-63
2023/09/14 02:23:53;;;;;;;;;;;22.40;1.00;;;;;;4957556;29;20422;-63
2023/09/14 02:26:20;;;;;;;;;;;22.40;1.00;;;;;;4939795;29;19927;-63
2023/09/14 02:28:47;;;;;;;;;;;22.40;1.00;;;;;;4957429;29;20286;-63
2023/09/14 02:31:15;;;;;;;;;;;22.30;1.00;;;;;;4957437;29;19926;-64
2023/09/14 02:33:42;;;;;;;;;;;22.30;1.00;;;;;;4957245;29;20429;-63
2023/09/14 02:36:09;;;;;;;;;;;22.40;1.00;;;;;;4957157;29;19927;-63
2023/09/14 02:38:36;;;;;;;;;;;22.40;1.00;;;;;;4939846;29;19933;-63
2023/09/14 02:41:03;;;;;;;;;;;22.30;1.00;;;;;;4939860;29;19926;-63
2023/09/14 02:43:29;;;;;;;;;;;22.30;1.00;;;;;;4939922;29;20013;-63
2023/09/14 02:45:57;;;;;;;;;;;22.30;1.00;;;;;;4957055;29;19950;-63
2023/09/14 02:48:24;;;;;;;;;;;22.30;1.00;;;;;;4956868;29;20029;-62
2023/09/14 02:50:50;;;;;;;;;;;22.30;1.00;;;;;;4939676;29;20073;-63
2023/09/14 02:53:17;;;;;;;;;;;22.30;1.00;;;;;;4957049;29;19965;-63
2023/09/14 02:55:44;;;;;;;;;;;22.30;1.00;;;;;;4939500;29;19958;-64
2023/09/14 02:58:11;;;;;;;;;;;22.30;1.00;;;;;;4939491;29;19930;-63
2023/09/14 03:00:39;;;;;;;;;;;22.30;1.00;;;;;;4939312;29;19934;-63
2023/09/14 03:03:09;;;;;;;;;;;22.30;1.00;;;;;;4939564;29;19941;-63
2023/09/14 03:05:36;;;;;;;;;;;22.30;1.00;;;;;;4939404;29;19949;-63
2023/09/14 03:08:03;;;;;;;;;;;22.30;1.00;;;;;;4956596;29;20012;-63
2023/09/14 03:10:30;;;;;;;;;;;22.20;1.00;;;;;;4939318;29;19932;-63
2023/09/14 03:12:57;;;;;;;;;;;22.20;1.00;;;;;;4939288;29;19993;-63
2023/09/14 03:15:24;;;;;;;;;;;22.20;1.00;;;;;;4939264;29;19977;-64
2023/09/14 03:17:51;;;;;;;;;;;22.20;1.00;;;;;;4939020;29;19931;-64
2023/09/14 03:20:19;;;;;;;;;;;22.20;1.00;;;;;;4939215;29;20342;-64
2023/09/14 03:22:45;;;;;;;;;;;22.20;1.00;;;;;;4939089;29;19926;-63
2023/09/14 03:25:12;;;;;;;;;;;22.20;1.00;;;;;;4938874;29;19934;-62
2023/09/14 03:27:40;;;;;;;;;;;22.20;1.00;;;;;;4935397;29;19933;-63
2023/09/14 03:30:08;;;;;;;;;;;22.20;1.00;;;;;;4948215;29;19927;-63
2023/09/14 03:32:34;;;;;;;;;;;22.20;1.00;;;;;;4939075;29;20037;-64
2023/09/14 03:35:02;;;;;;;;;;;22.20;1.00;;;;;;4939013;29;20342;-64
2023/09/14 03:37:29;;;;;;;;;;;22.20;1.00;;;;;;4938578;29;20352;-63
2023/09/14 03:39:56;;;;;;;;;;;22.20;1.00;;;;;;4938610;29;19933;-64
2023/09/14 03:42:23;;;;;;;;;;;22.10;1.00;;;;;;4938710;29;19927;-64
2023/09/14 03:44:50;;;;;;;;;;;22.20;1.00;;;;;;4938582;29;20373;-63
2023/09/14 03:47:16;;;;;;;;;;;22.10;1.00;;;;;;4955829;29;20361;-64
2023/09/14 03:49:43;;;;;;;;;;;22.10;1.00;;;;;;4938585;29;20029;-64
2023/09/14 03:52:10;;;;;;;;;;;22.10;1.00;;;;;;4938597;29;20025;-64
2023/09/14 03:54:37;;;;;;;;;;;22.10;1.00;;;;;;4938468;29;19926;-64
2023/09/14 03:57:05;;;;;;;;;;;22.10;1.00;;;;;;4938140;29;19927;-63
2023/09/14 03:59:32;;;;;;;;;;;22.10;1.00;;;;;;4938518;29;19931;-63
2023/09/14 04:01:59;;;;;;;;;;;22.10;1.00;;;;;;4955775;29;19939;-63
2023/09/14 04:04:26;;;;;;;;;;;22.10;1.00;;;;;;4939074;29;20302;-64
2023/09/14 04:06:53;;;;;;;;;;;22.10;1.00;;;;;;4937899;29;19927;-64
2023/09/14 04:09:20;;;;;;;;;;;22.10;1.00;;;;;;4936310;29;19926;-64
2023/09/14 04:11:47;;;;;;;;;;;22.00;1.00;;;;;;4934804;29;20405;-64
2023/09/14 04:14:13;;;;;;;;;;;22.10;1.00;;;;;;4934949;29;19927;-63
2023/09/14 04:16:41;;;;;;;;;;;22.00;1.00;;;;;;4938035;29;19926;-63
2023/09/14 04:19:08;;;;;;;;;;;22.00;1.00;;;;;;4938278;29;19962;-63
2023/09/14 04:21:35;;;;;;;;;;;22.00;1.00;;;;;;4938043;29;19926;-63
2023/09/14 04:24:02;;;;;;;;;;;22.00;1.00;;;;;;4936889;29;20033;-63
2023/09/14 04:26:29;;;;;;;;;;;22.00;1.00;;;;;;4937497;29;19927;-63
2023/09/14 04:28:56;;;;;;;;;;;21.90;1.00;;;;;;4937581;29;20017;-63
2023/09/14 04:31:23;;;;;;;;;;;21.90;1.00;;;;;;4937635;29;19927;-64
2023/09/14 04:33:50;;;;;;;;;;;21.90;1.00;;;;;;4937539;29;19949;-63
2023/09/14 04:36:17;;;;;;;;;;;21.90;1.00;;;;;;4937510;29;19926;-63
2023/09/14 04:38:44;;;;;;;;;;;21.90;1.00;;;;;;4937286;29;19933;-63
2023/09/14 04:41:12;;;;;;;;;;;21.90;1.00;;;;;;4937288;29;20386;-63
2023/09/14 04:43:39;;;;;;;;;;;21.90;1.00;;;;;;4937545;29;19927;-64
2023/09/14 04:46:06;;;;;;;;;;;21.80;1.00;;;;;;4934172;29;20298;-64
2023/09/14 04:48:37;;;;;;;;;;;21.90;1.00;;;;;;4934116;29;19933;-64
2023/09/14 04:51:08;;;;;;;;;;;21.80;1.00;;;;;;4933918;29;19927;-64
2023/09/14 04:53:44;;;;;;;;;;;21.80;1.00;;;;;;4933569;29;20209;-64
2023/09/14 04:56:11;;;;;;;;;;;21.80;1.00;;;;;;4933576;29;20021;-64
2023/09/14 04:58:39;;;;;;;;;;;21.80;1.00;;;;;;4933622;29;20021;-63
2023/09/14 05:01:06;;;;;;;;;;;21.80;1.00;;;;;;4934083;29;19927;-64
2023/09/14 05:03:33;;;;;;;;;;;21.80;1.00;;;;;;4933495;29;20290;-64
2023/09/14 05:06:02;;;;;;;;;;;21.80;1.00;;;;;;4932829;29;19934;-64
2023/09/14 05:08:29;;;;;;;;;;;21.80;1.00;;;;;;4933845;29;20564;-64
2023/09/14 05:10:56;;;;;;;;;;;21.70;1.00;;;;;;4943838;28;19927;-64
2023/09/14 05:13:23;;;;;;;;;;;21.70;1.00;;;;;;4935625;29;19933;-64
2023/09/14 05:15:50;;;;;;;;;;;21.70;1.00;;;;;;4936435;29;19926;-64
2023/09/14 05:18:22;;;;;;;;;;;21.70;1.00;;;;;;4936315;29;19935;-63
2023/09/14 05:20:49;;;;;;;;;;;21.70;1.00;;;;;;4936439;29;19927;-64
2023/09/14 05:23:15;;;;;;;;;;;21.70;1.00;;;;;;4935006;29;20021;-63
2023/09/14 05:25:43;;;;;;;;;;;21.70;1.00;;;;;;4933732;29;20033;-63
2023/09/14 05:28:09;;;;;;;;;;;21.70;1.00;;;;;;4934591;29;19934;-64
2023/09/14 05:30:37;;;;;;;;;;;21.70;1.00;;;;;;4933592;29;20422;-63
2023/09/14 05:33:04;;;;;;;;;;;21.70;1.00;;;;;;4933620;29;19976;-64
2023/09/14 05:35:31;;;;;;;;;;;21.70;1.00;;;;;;4933679;29;19934;-64
2023/09/14 05:37:58;;;;;;;;;;;21.70;1.00;;;;;;4936414;29;19933;-64
2023/09/14 05:40:25;;;;;;;;;;;21.70;1.00;;;;;;4936756;29;20389;-63
2023/09/14 05:42:52;;;;;;;;;;;21.70;1.00;;;;;;4936663;29;19930;-63
2023/09/14 05:45:19;;;;;;;;;;;21.60;1.00;;;;;;4936693;29;19941;-64
2023/09/14 05:47:46;;;;;;;;;;;21.60;1.00;;;;;;4953516;29;20420;-64
2023/09/14 05:50:12;;;;;;;;;;;21.60;1.00;;;;;;4936752;29;19950;-64
2023/09/14 05:52:42;;;;;;;;;;;21.60;1.00;;;;;;4938457;29;19931;-64
2023/09/14 05:55:09;;;;;;;;;;;21.60;1.00;;;;;;4940521;29;19934;-64
2023/09/14 05:57:36;;;;;;;;;;;21.60;1.00;;;;;;4940048;29;19927;-63
2023/09/14 06:00:12;;;;;;;;;;;21.60;1.00;;;;;;4940276;29;20033;-64
2023/09/14 06:02:45;;;;;;;;;;;21.60;1.00;;;;;;4940399;29;20017;-64
2023/09/14 06:05:13;;;;;;;;;;;21.60;1.00;;;;;;4937304;29;20297;-63
2023/09/14 06:07:52;;;;;;;;;;;21.60;1.00;;;;;;4936905;29;19934;-64
2023/09/14 06:10:20;;;;;;;;;;;21.60;1.00;;;;;;4940127;29;19926;-63
2023/09/14 06:12:49;;;;;;;;;;;21.60;1.00;;;;;;4940089;29;19926;-63
2023/09/14 06:15:16;;;;;;;;;;;21.60;1.00;;;;;;4957637;29;19950;-63
2023/09/14 06:17:43;;;;;;;;;;;21.60;1.00;;;;;;4956984;29;19960;-63
2023/09/14 06:20:10;;;;;;;;;;;21.60;1.00;;;;;;4957350;29;19927;-64
2023/09/14 06:22:37;;;;;;;;;;;21.60;1.00;;;;;;4957250;29;19977;-63
2023/09/14 06:25:04;;;;;;;;;;;21.60;1.00;;;;;;4957128;29;19938;-64
2023/09/14 06:27:31;;;;;;;;;;;21.60;1.00;;;;;;4956686;29;19934;-64
2023/09/14 06:29:57;;;;;;;;;;;21.60;1.00;;;;;;4957036;29;19927;-64
2023/09/14 06:32:24;;;;;;;;;;;21.60;1.00;;;;;;4956973;29;20267;-64
2023/09/14 06:34:51;;;;;;;;;;;21.70;1.00;;;;;;4957326;29;19931;-64
2023/09/14 06:37:20;;;;;;;;;;;21.60;1.00;;;;;;4956645;29;19932;-64
2023/09/14 06:39:47;;;;;;;;;;;21.60;1.00;;;;;;4942039;29;19954;-64
2023/09/14 06:42:14;;;;;;;;;;;21.60;1.00;;;;;;4937918;29;20351;-64
2023/09/14 06:44:40;;;;;;;;;;;21.60;1.00;;;;;;4952414;29;19973;-63
2023/09/14 06:47:07;;;;;;;;;;;21.70;1.00;;;;;;4938946;29;19926;-62
2023/09/14 06:49:34;;;;;;;;;;;21.70;1.00;;;;;;4937856;29;19995;-64
2023/09/14 06:52:01;;;;;;;;;;;21.70;1.00;;;;;;4937726;29;20032;-63
2023/09/14 06:54:28;;;;;;;;;;;21.70;1.00;;;;;;4937876;29;19927;-63
2023/09/14 06:56:54;;;;;;;;;;;21.70;1.00;;;;;;4937332;29;20363;-63
2023/09/14 06:59:21;;;;;;;;;;;21.70;1.00;;;;;;4938147;29;20028;-64
2023/09/14 07:01:48;;;;;;;;;;;21.70;1.00;;;;;;4937782;29;19927;-64
2023/09/14 07:04:15;;;;;;;;;;;21.70;1.00;;;;;;4937437;29;20415;-63
2023/09/14 07:06:42;;;;;;;;;;;21.70;1.00;;;;;;4937011;29;19935;-64
2023/09/14 07:09:09;;;;;;;;;;;21.70;1.00;;;;;;4937545;29;19934;-64
2023/09/14 07:11:36;;;;;;;;;;;21.70;1.00;;;;;;4950022;29;19981;-64
2023/09/14 07:14:03;;;;;;;;;;;21.70;1.00;;;;;;4947758;29;20048;-64
2023/09/14 07:16:30;;;;;;;;;;;21.70;1.00;;;;;;4947966;29;20034;-64
2023/09/14 07:18:58;;;;;;;;;;;21.70;1.00;;;;;;4956554;28;19926;-63
2023/09/14 07:21:26;;;;;;;;;;;21.70;1.00;;;;;;4975679;28;19985;-63
2023/09/14 07:23:53;;;;;;;;;;;21.70;1.00;;;;;;4961216;28;19931;-63
2023/09/14 07:26:19;;;;;;;;;;;21.70;1.00;;;;;;4944959;29;20298;-63
2023/09/14 07:28:46;;;;;;;;;;;21.70;1.00;;;;;;4937611;29;20334;-63
2023/09/14 07:31:13;;;;;;;;;;;21.70;1.00;;;;;;4955117;29;19938;-64
2023/09/14 07:33:40;;;;;;;;;;;21.70;1.00;;;;;;4956340;29;19926;-63
2023/09/14 07:36:06;;;;;;;;;;;21.70;1.00;;;;;;4956340;29;19926;-63
2023/09/14 07:38:33;;;;;;;;;;;21.70;1.00;;;;;;4951345;29;19986;-66
2023/09/14 07:41:00;;;;;;;;;;;21.70;1.00;;;;;;4953314;29;19930;-64
2023/09/14 07:43:27;;;;;;;;;;;21.70;1.00;;;;;;4956326;29;20368;-63
2023/09/14 07:45:57;;;;;;;;;;;21.70;1.00;;;;;;4956031;29;19927;-64
2023/09/14 07:48:24;;;;;;;;;;;21.70;1.00;;;;;;4938380;29;19933;-64
2023/09/14 07:50:52;;;;;;;;;;;21.70;1.00;;;;;;4956168;29;19974;-64
2023/09/14 07:53:19;;;;;;;;;;;21.70;1.00;;;;;;4955719;29;19940;-64
2023/09/14 07:55:52;;;;;;;;;;;21.70;1.00;;;;;;4955833;29;19930;-64
2023/09/14 07:58:22;;;;;;;;;;;21.60;1.00;;;;;;4945203;29;19966;-64
2023/09/14 08:00:49;;;;;;;;;;;21.70;1.00;;;;;;4951307;29;19933;-64
2023/09/14 08:03:16;;;;;;;;;;;21.60;1.00;;;;;;4945758;29;19927;-63
2023/09/14 08:05:43;;;;;;;;;;;21.70;1.00;;;;;;4936632;29;20395;-64
2023/09/14 08:08:10;;;;;;;;;;;21.60;1.00;;;;;;4936158;29;19934;-63
2023/09/14 08:10:37;;;;;;;;;;;21.60;1.00;;;;;;4936702;29;19965;-64
2023/09/14 08:13:04;;;;;;;;;;;21.60;1.00;;;;;;4936659;29;19949;-64
2023/09/14 08:15:30;;;;;;;;;;;21.60;1.00;;;;;;4935655;29;20362;-64
2023/09/14 08:17:59;;;;;;;;;;;21.70;1.00;;;;;;4935925;29;19966;-64
2023/09/14 08:20:27;;;;;;;;;;;21.70;1.00;;;;;;4936262;29;19969;-64
2023/09/14 08:22:54;;;;;;;;;;;21.70;1.00;;;;;;4936191;29;20417;-64
2023/09/14 08:25:21;;;;;;;;;;;21.70;1.00;;;;;;4936249;29;19934;-64
2023/09/14 08:27:48;;;;;;;;;;;21.70;1.00;;;;;;4935683;29;19933;-64
2023/09/14 08:30:15;;;;;;;;;;;21.60;1.00;;;;;;4936107;29;19927;-64
2023/09/14 08:32:42;;;;;;;;;;;21.70;1.00;;;;;;4936139;29;19926;-64
2023/09/14 08:35:22;;;;;;;;;;;21.70;1.00;;;;;;4952880;29;20485;-64
2023/09/14 08:37:49;;;;;;;;;;;21.70;1.00;;;;;;4954726;29;20383;-64
2023/09/14 08:40:18;;;;;;;;;;;21.70;1.00;;;;;;4953054;29;19927;-64
2023/09/14 08:42:47;;;;;;;;;;;21.70;1.00;;;;;;4935959;29;19927;-64
2023/09/14 08:45:15;;;;;;;;;;;21.70;1.00;;;;;;4937246;28;19954;-64
2023/09/14 08:47:44;;;;;;;;;;;21.70;1.00;;;;;;4954730;29;20294;-64
2023/09/14 08:50:13;;;;;;;;;;;21.70;1.00;;;;;;4954834;29;19934;-64
2023/09/14 08:52:42;;;;;;;;;;;21.80;1.00;;;;;;4950017;29;20021;-63
2023/09/14 08:55:10;;;;;;;;;;;21.70;1.00;;;;;;4935638;29;19974;-64
2023/09/14 08:57:38;;;;;;;;;;;21.80;1.00;;;;;;4935376;28;20017;-64
2023/09/14 09:00:14;;;;;;;;;;;21.80;1.00;;;;;;4935452;29;19926;-64
2023/09/14 09:02:45;;;;;;;;;;;21.90;1.00;;;;;;4935454;29;19973;-64
2023/09/14 09:05:12;;;;;;;;;;;21.80;1.00;;;;;;4935439;29;20026;-64
2023/09/14 09:07:40;;;;;;;;;;;21.90;1.00;;;;;;4934707;29;19927;-64
2023/09/14 09:10:18;;;;;;;;;;;21.90;1.00;;;;;;4935207;29;20026;-64
2023/09/14 09:12:46;;;;;;;;;;;21.90;1.00;;;;;;4934943;29;19930;-64
2023/09/14 09:15:13;;;;;;;;;;;22.00;1.00;;;;;;4935071;29;19983;-64
2023/09/14 09:17:41;;;;;;;;;;;22.00;1.00;;;;;;4947049;29;20417;-64
2023/09/14 09:20:14;;;;;;;;;;;22.00;1.00;;;;;;4954272;29;19958;-64
2023/09/14 09:22:43;;;;;;;;;;;22.00;1.00;;;;;;4949870;29;20049;-64
2023/09/14 09:25:10;;;;;;;;;;;22.00;1.00;;;;;;4935106;28;19933;-64
2023/09/14 09:27:39;;;;;;;;;;;22.00;1.00;;;;;;4933765;29;19927;-64
2023/09/14 09:30:07;;;;;;;;;;;22.10;1.00;;;;;;4935853;29;19938;-64
2023/09/14 09:32:35;;;;;;;;;;;22.10;1.00;;;;;;4946349;29;20287;-64
2023/09/14 09:35:16;;;;;;;;;;;22.10;1.00;;;;;;4936888;29;19926;-64
2023/09/14 09:37:42;;;;;;;;;;;22.10;1.00;;;;;;4953932;29;19931;-64
2023/09/14 09:40:22;;;;;;;;;;;22.20;1.00;;;;;;4954372;29;19926;-64
2023/09/14 09:42:50;;;;;;;;;;;22.20;1.00;;;;;;4954212;29;20347;-64
2023/09/14 09:45:18;;;;;;;;;;;22.20;1.00;;;;;;4954091;29;19982;-64
2023/09/14 09:47:45;;;;;;;;;;;22.20;1.00;;;;;;4953623;29;19930;-64
2023/09/14 09:50:12;;;;;;;;;;;22.20;1.00;;;;;;4954191;29;20406;-64
2023/09/14 09:52:41;;;;;;;;;;;22.30;1.00;;;;;;4953840;29;19927;-64
2023/09/14 09:55:15;;;;;;;;;;;22.30;1.00;;;;;;4954103;29;19926;-64
2023/09/14 09:57:48;;;;;;;;;;;22.30;1.00;;;;;;4953644;29;19927;-64
2023/09/14 10:00:16;;;;;;;;;;;22.30;1.00;;;;;;4953906;29;19930;-64
2023/09/14 10:02:43;;;;;;;;;;;22.30;1.00;;;;;;4954278;29;20327;-64
2023/09/14 10:05:10;;;;;;;;;;;22.40;1.00;;;;;;4953881;29;19927;-64
2023/09/14 10:07:40;;;;;;;;;;;22.40;1.00;;;;;;4953375;29;19933;-63
2023/09/14 10:10:08;;;;;;;;;;;22.40;1.00;;;;;;4953885;29;20183;-64
2023/09/14 10:12:38;;;;;;;;;;;22.40;1.00;;;;;;4950502;29;19931;-64
2023/09/14 10:15:06;;;;;;;;;;;22.40;1.00;;;;;;4949915;29;20001;-64
2023/09/14 10:17:33;;;;;;;;;;;22.50;1.00;;;;;;4942725;29;19970;-64
2023/09/14 10:20:01;;;;;;;;;;;22.50;1.00;;;;;;4934878;29;20018;-64
2023/09/14 10:22:28;;;;;;;;;;;22.50;1.00;;;;;;4944757;29;19958;-64
2023/09/14 10:24:55;;;;;;;;;;;22.50;1.00;;;;;;4953761;29;20373;-64
2023/09/14 10:27:23;;;;;;;;;;;22.50;1.00;;;;;;4953225;29;20021;-64
2023/09/14 10:29:51;;;;;;;;;;;22.60;1.00;;;;;;4953651;29;19937;-64
2023/09/14 10:32:21;;;;;;;;;;;22.60;1.00;;;;;;4944488;29;19930;-64
2023/09/14 10:34:49;;;;;;;;;;;22.60;1.00;;;;;;4934660;29;20440;-64
2023/09/14 10:37:33;;;;;;;;;;;22.60;1.00;;;;;;4934159;28;20405;-64
2023/09/14 10:40:01;;;;;;;;;;;22.60;1.00;;;;;;4937959;29;19930;-64
2023/09/14 10:42:28;;;;;;;;;;;22.60;1.00;;;;;;4937796;29;19927;-64
2023/09/14 10:44:55;;;;;;;;;;;22.60;1.00;;;;;;4938022;29;19934;-64
2023/09/14 10:47:23;;;;;;;;;;;22.70;1.00;;;;;;4937429;29;20306;-64
2023/09/14 10:49:50;;;;;;;;;;;22.70;1.00;;;;;;4937979;29;19931;-64
2023/09/14 10:52:24;;;;;;;;;;;22.70;1.00;;;;;;4937799;29;19934;-64
2023/09/14 10:54:51;;;;;;;;;;;22.70;1.00;;;;;;4950766;28;19926;-64
2023/09/14 10:57:27;;;;;;;;;;;22.70;1.00;;;;;;4956529;29;19969;-64
2023/09/14 10:59:58;;;;;;;;;;;22.70;1.00;;;;;;4956665;29;19934;-64
2023/09/14 11:02:42;;;;;;;;;;;22.70;1.00;;;;;;4956889;29;19933;-64
2023/09/14 11:05:18;;;;;;;;;;;22.70;1.00;;;;;;4940517;29;19934;-64
2023/09/14 11:07:49;;;;;;;;;;;22.70;1.00;;;;;;4937186;29;19931;-64
2023/09/14 11:10:17;;;;;;;;;;;22.70;1.00;;;;;;4937418;29;20018;-64
2023/09/14 11:12:45;;;;;;;;;;;22.70;1.00;;;;;;4937425;29;19977;-64
2023/09/14 11:15:17;;;;;;;;;;;22.70;1.00;;;;;;4937381;29;19927;-64
2023/09/14 11:17:45;;;;;;;;;;;22.70;1.00;;;;;;4937213;29;20310;-64
2023/09/14 11:20:20;;;;;;;;;;;22.80;1.00;;;;;;4937711;29;19933;-64
2023/09/14 11:22:48;;;;;;;;;;;22.70;1.00;;;;;;4944389;29;19997;-64
2023/09/14 11:25:30;;;;;;;;;;;22.80;1.00;;;;;;4947149;29;19927;-64
2023/09/14 11:28:21;;;;;;;;;;;22.70;1.00;;;;;;4946651;29;20390;-64
2023/09/14 11:30:48;;;;;;;;;;;22.80;1.00;;;;;;4937331;29;20383;-64
2023/09/14 11:33:16;;;;;;;;;;;22.80;1.00;;;;;;4936976;29;19966;-64
2023/09/14 11:35:46;;;;;;;;;;;22.80;1.00;;;;;;4948339;29;19933;-64
2023/09/14 11:38:18;;;;;;;;;;;22.80;1.00;;;;;;4956228;29;19927;-64
2023/09/14 11:40:48;;;;;;;;;;;22.80;1.00;;;;;;4956201;29;19933;-64
2023/09/14 11:43:21;;;;;;;;;;;22.80;1.00;;;;;;4948160;29;19926;-64
2023/09/14 11:46:11;;;;;;;;;;;22.80;1.00;;;;;;4936873;29;20305;-64
2023/09/14 11:48:45;;;;;;;;;;;22.80;1.00;;;;;;4936491;29;19927;-65
2023/09/14 11:51:16;;;;;;;;;;;22.80;1.00;;;;;;4951549;29;20009;-64
2023/09/14 11:53:43;;;;;;;;;;;22.80;1.00;;;;;;4955650;29;19926;-64
2023/09/14 11:56:10;;;;;;;;;;;22.80;1.00;;;;;;4955517;29;19926;-64
2023/09/14 11:58:39;;;;;;;;;;;22.80;1.00;;;;;;4955294;29;19933;-64
2023/09/14 12:01:06;;;;;;;;;;;22.80;1.00;;;;;;4955675;29;20432;-64
2023/09/14 12:03:36;;;;;;;;;;;22.80;1.00;;;;;;4955497;29;19926;-64
2023/09/14 12:06:03;;;;;;;;;;;22.80;1.00;;;;;;4950035;29;19927;-66
2023/09/14 12:08:33;;;;;;;;;;;22.80;1.00;;;;;;4936049;29;20025;-64
2023/09/14 12:11:00;;;;;;;;;;;22.80;1.00;;;;;;4936401;29;19934;-64
2023/09/14 12:13:27;;;;;;;;;;;22.80;1.00;;;;;;4945047;28;19952;-64
2023/09/14 12:16:01;;;;;;;;;;;22.80;1.00;;;;;;4955452;29;20402;-64
2023/09/14 12:18:39;;;;;;;;;;;22.80;1.00;;;;;;4955153;29;19934;-64
2023/09/14 12:21:09;;;;;;;;;;;22.80;1.00;;;;;;4955356;29;20059;-64
2023/09/14 12:23:38;;;;;;;;;;;22.70;1.00;;;;;;4955317;29;20394;-64
2023/09/14 12:26:09;;;;;;;;;;;22.70;1.00;;;;;;4954916;29;19930;-64
2023/09/14 12:28:36;;;;;;;;;;;22.80;1.00;;;;;;4954791;29;19931;-64
2023/09/14 12:31:03;;;;;;;;;;;22.70;1.00;;;;;;4955027;29;19950;-64
2023/09/14 12:33:30;;;;;;;;;;;22.70;1.00;;;;;;4953889;29;19990;-64
2023/09/14 12:35:57;;;;;;;;;;;22.70;1.00;;;;;;4936082;29;20395;-64
2023/09/14 12:38:24;;;;;;;;;;;22.70;1.00;;;;;;4935409;29;20417;-64
2023/09/14 12:41:06;;;;;;;;;;;22.80;1.00;;;;;;4935776;29;19938;-64
2023/09/14 12:43:33;;;;;;;;;;;22.80;1.00;;;;;;4935623;28;20021;-64
2023/09/14 12:46:00;;;;;;;;;;;22.80;1.00;;;;;;4935458;29;19934;-64
2023/09/14 12:48:28;;;;;;;;;;;22.80;1.00;;;;;;4943722;29;20441;-64
2023/09/14 12:50:58;;;;;;;;;;;22.80;1.00;;;;;;4954788;29;19981;-64
2023/09/14 12:53:28;;;;;;;;;;;22.70;1.00;;;;;;4954433;29;20374;-64
2023/09/14 12:55:55;;;;;;;;;;;22.70;1.00;;;;;;4954504;29;19949;-64
2023/09/14 12:58:22;;;;;;;;;;;22.70;1.00;;;;;;4947035;29;20403;-64
2023/09/14 13:00:52;;;;;;;;;;;22.70;1.00;;;;;;4946569;28;19986;-64
2023/09/14 13:03:19;;;;;;;;;;;22.70;1.00;;;;;;4954760;29;19994;-64
2023/09/14 13:05:47;;;;;;;;;;;22.70;1.00;;;;;;4935922;29;20376;-64
2023/09/14 13:08:14;;;;;;;;;;;22.70;1.00;;;;;;4935241;29;19947;-64
2023/09/14 13:10:41;;;;;;;;;;;22.70;1.00;;;;;;4935187;29;20378;-64
2023/09/14 13:13:09;;;;;;;;;;;22.70;1.00;;;;;;4943029;29;20342;-64
2023/09/14 13:15:40;;;;;;;;;;;22.70;1.00;;;;;;4936853;29;20391;-64
2023/09/14 13:18:10;;;;;;;;;;;22.70;1.00;;;;;;4956800;28;20413;-64
2023/09/14 13:20:44;;;;;;;;;;;22.70;1.00;;;;;;4935304;29;19966;-64
2023/09/14 13:23:12;;;;;;;;;;;22.70;1.00;;;;;;4935349;29;20026;-64
2023/09/14 13:25:39;;;;;;;;;;;22.70;1.00;;;;;;4934944;29;19942;-64
2023/09/14 13:28:06;;;;;;;;;;;22.70;1.00;;;;;;4934659;29;19967;-64
2023/09/14 13:30:34;;;;;;;;;;;22.80;1.00;;;;;;4943846;29;19927;-64
2023/09/14 13:33:01;;;;;;;;;;;22.80;1.00;;;;;;4949947;29;19927;-64
2023/09/14 13:35:29;;;;;;;;;;;22.80;1.00;;;;;;4935183;29;19969;-64
2023/09/14 13:37:59;;;;;;;;;;;22.80;1.00;;;;;;4942781;29;19926;-64
2023/09/14 13:40:27;;;;;;;;;;;22.80;1.00;;;;;;4935616;29;20310;-64
2023/09/14 13:42:58;;;;;;;;;;;22.80;1.00;;;;;;4935089;29;19974;-64
2023/09/14 13:45:26;;;;;;;;;;;22.80;1.00;;;;;;4935145;29;19927;-64
2023/09/14 13:47:53;;;;;;;;;;;22.80;1.00;;;;;;4934508;29;19933;-64
2023/09/14 13:50:20;;;;;;;;;;;22.80;1.00;;;;;;4939740;29;19934;-64
2023/09/14 13:52:47;;;;;;;;;;;22.80;1.00;;;;;;4952350;29;20057;-64
2023/09/14 13:55:17;;;;;;;;;;;22.80;1.00;;;;;;4951441;29;19930;-65
2023/09/14 13:57:44;;;;;;;;;;;22.80;1.00;;;;;;4949167;29;20022;-64
2023/09/14 14:00:12;;;;;;;;;;;22.80;1.00;;;;;;4944536;29;19958;-64
2023/09/14 14:02:40;;;;;;;;;;;22.80;1.00;;;;;;4942906;29;19926;-65
2023/09/14 14:05:08;;;;;;;;;;;22.80;1.00;;;;;;4934976;29;19930;-64
2023/09/14 14:07:35;;;;;;;;;;;22.80;1.00;;;;;;4942904;29;19933;-64
2023/09/14 14:10:03;;;;;;;;;;;22.80;1.00;;;;;;4954069;29;20071;-65
2023/09/14 14:12:30;;;;;;;;;;;22.80;1.00;;;;;;4953978;28;19981;-65
2023/09/14 14:14:57;;;;;;;;;;;22.80;1.00;;;;;;4957674;29;20359;-64
2023/09/14 14:17:24;;;;;;;;;;;22.80;1.00;;;;;;4957233;29;19926;-65
2023/09/14 14:19:51;;;;;;;;;;;22.80;1.00;;;;;;4957518;29;19969;-65
2023/09/14 14:22:18;;;;;;;;;;;22.80;1.00;;;;;;4957613;29;19932;-64
2023/09/14 14:24:45;;;;;;;;;;;22.70;1.00;;;;;;4957333;29;19930;-64
2023/09/14 14:27:15;;;;;;;;;;;22.70;1.00;;;;;;4953401;29;19927;-64
2023/09/14 14:29:42;;;;;;;;;;;22.80;1.00;;;;;;4951431;29;19935;-64
2023/09/14 14:32:09;;;;;;;;;;;22.70;1.00;;;;;;4956578;29;19933;-64
2023/09/14 14:34:35;;;;;;;;;;;22.70;1.00;;;;;;4956226;29;19927;-64
2023/09/14 14:37:03;;;;;;;;;;;22.80;1.00;;;;;;4955181;29;20445;-64